sensor_id;sensor_type;location;lat;lon;timestamp;P1;durP1;ratioP1;P2;durP2;ratioP2
60030;SDS011;45901;47.600;9.890;2023-08-24T00:02:05;11.37;;;5.67;;
60030;SDS011;45901;47.600;9.890;2023-08-24T00:04:32;8.07;;;5.63;;
60030;SDS011;45901;47.600;9.890;2023-08-24T00:07:01;12.00;;;6.13;;
60030;SDS011;45901;47.600;9.890;2023-08-24T00:09:29;11.27;;;6.13;;
60030;SDS011;45901;47.600;9.890;2023-08-24T00:11:57;15.37;;;6.47;;
60030;SDS011;45901;47.600;9.890;2023-08-24T00:14:24;12.00;;;6.20;;
60030;SDS011;45901;47.600;9.890;2023-08-24T00:16:51;10.97;;;5.73;;
60030;SDS011;45901;47.600;9.890;2023-08-24T00:19:18;8.97;;;5.60;;
60030;SDS011;45901;47.600;9.890;2023-08-24T00:21:45;11.40;;;6.07;;
60030;SDS011;45901;47.600;9.890;2023-08-24T00:24:14;8.83;;;5.90;;
60030;SDS011;45901;47.600;9.890;2023-08-24T00:26:41;12.70;;;5.87;;
60030;SDS011;45901;47.600;9.890;2023-08-24T00:29:08;11.37;;;6.03;;
60030;SDS011;45901;47.600;9.890;2023-08-24T00:31:35;9.97;;;6.23;;
60030;SDS011;45901;47.600;9.890;2023-08-24T00:34:03;13.73;;;5.73;;
60030;SDS011;45901;47.600;9.890;2023-08-24T00:36:29;9.27;;;5.43;;
60030;SDS011;45901;47.600;9.890;2023-08-24T00:38:56;10.27;;;6.07;;
60030;SDS011;45901;47.600;9.890;2023-08-24T00:41:25;9.57;;;6.27;;
60030;SDS011;45901;47.600;9.890;2023-08-24T00:43:52;11.73;;;6.50;;
60030;SDS011;45901;47.600;9.890;2023-08-24T00:46:19;10.23;;;5.63;;
60030;SDS011;45901;47.600;9.890;2023-08-24T00:48:48;17.23;;;6.57;;
60030;SDS011;45901;47.600;9.890;2023-08-24T00:51:16;9.63;;;6.00;;
60030;SDS011;45901;47.600;9.890;2023-08-24T00:53:44;14.47;;;7.40;;
60030;SDS011;45901;47.600;9.890;2023-08-24T00:56:12;12.03;;;6.10;;
60030;SDS011;45901;47.600;9.890;2023-08-24T00:58:40;9.63;;;6.03;;
60030;SDS011;45901;47.600;9.890;2023-08-24T01:01:07;10.10;;;6.57;;
60030;SDS011;45901;47.600;9.890;2023-08-24T01:03:34;10.80;;;6.77;;
60030;SDS011;45901;47.600;9.890;2023-08-24T01:06:01;10.73;;;6.73;;
60030;SDS011;45901;47.600;9.890;2023-08-24T01:08:28;10.90;;;6.27;;
60030;SDS011;45901;47.600;9.890;2023-08-24T01:10:57;10.07;;;6.13;;
60030;SDS011;45901;47.600;9.890;2023-08-24T01:13:36;9.70;;;6.33;;
60030;SDS011;45901;47.600;9.890;2023-08-24T01:16:13;10.83;;;6.43;;
60030;SDS011;45901;47.600;9.890;2023-08-24T01:18:45;16.77;;;8.03;;
60030;SDS011;45901;47.600;9.890;2023-08-24T01:21:14;13.70;;;5.80;;
60030;SDS011;45901;47.600;9.890;2023-08-24T01:23:43;10.60;;;6.03;;
60030;SDS011;45901;47.600;9.890;2023-08-24T01:26:18;12.20;;;6.63;;
60030;SDS011;45901;47.600;9.890;2023-08-24T01:28:47;15.03;;;6.73;;
60030;SDS011;45901;47.600;9.890;2023-08-24T01:31:15;11.07;;;6.00;;
60030;SDS011;45901;47.600;9.890;2023-08-24T01:33:42;7.90;;;6.23;;
60030;SDS011;45901;47.600;9.890;2023-08-24T01:36:10;11.27;;;6.40;;
60030;SDS011;45901;47.600;9.890;2023-08-24T01:38:40;11.53;;;6.47;;
60030;SDS011;45901;47.600;9.890;2023-08-24T01:41:11;13.37;;;6.03;;
60030;SDS011;45901;47.600;9.890;2023-08-24T01:43:48;12.30;;;6.47;;
60030;SDS011;45901;47.600;9.890;2023-08-24T01:46:20;10.83;;;6.50;;
60030;SDS011;45901;47.600;9.890;2023-08-24T01:48:51;11.93;;;5.50;;
60030;SDS011;45901;47.600;9.890;2023-08-24T01:51:19;10.03;;;6.00;;
60030;SDS011;45901;47.600;9.890;2023-08-24T01:53:47;10.43;;;5.77;;
60030;SDS011;45901;47.600;9.890;2023-08-24T01:56:15;12.90;;;5.43;;
60030;SDS011;45901;47.600;9.890;2023-08-24T01:58:42;14.10;;;5.93;;
60030;SDS011;45901;47.600;9.890;2023-08-24T02:01:11;11.43;;;6.40;;
60030;SDS011;45901;47.600;9.890;2023-08-24T02:03:38;12.13;;;5.87;;
60030;SDS011;45901;47.600;9.890;2023-08-24T02:06:05;13.37;;;5.77;;
60030;SDS011;45901;47.600;9.890;2023-08-24T02:08:32;15.50;;;6.17;;
60030;SDS011;45901;47.600;9.890;2023-08-24T02:11:00;12.83;;;6.10;;
60030;SDS011;45901;47.600;9.890;2023-08-24T02:13:27;14.80;;;5.10;;
60030;SDS011;45901;47.600;9.890;2023-08-24T02:16:00;10.87;;;5.90;;
60030;SDS011;45901;47.600;9.890;2023-08-24T02:18:30;10.50;;;5.70;;
60030;SDS011;45901;47.600;9.890;2023-08-24T02:20:57;11.43;;;6.10;;
60030;SDS011;45901;47.600;9.890;2023-08-24T02:23:24;8.13;;;5.53;;
60030;SDS011;45901;47.600;9.890;2023-08-24T02:25:51;12.63;;;5.93;;
60030;SDS011;45901;47.600;9.890;2023-08-24T02:28:18;11.87;;;5.73;;
60030;SDS011;45901;47.600;9.890;2023-08-24T02:30:45;11.03;;;5.80;;
60030;SDS011;45901;47.600;9.890;2023-08-24T02:33:12;9.80;;;6.07;;
60030;SDS011;45901;47.600;9.890;2023-08-24T02:35:40;12.67;;;6.40;;
60030;SDS011;45901;47.600;9.890;2023-08-24T02:38:08;17.43;;;6.73;;
60030;SDS011;45901;47.600;9.890;2023-08-24T02:40:35;10.97;;;6.07;;
60030;SDS011;45901;47.600;9.890;2023-08-24T02:43:02;11.50;;;5.83;;
60030;SDS011;45901;47.600;9.890;2023-08-24T02:45:29;15.33;;;5.60;;
60030;SDS011;45901;47.600;9.890;2023-08-24T02:47:56;10.87;;;5.77;;
60030;SDS011;45901;47.600;9.890;2023-08-24T02:50:23;15.87;;;6.50;;
60030;SDS011;45901;47.600;9.890;2023-08-24T02:52:51;10.23;;;5.23;;
60030;SDS011;45901;47.600;9.890;2023-08-24T02:55:18;9.03;;;5.20;;
60030;SDS011;45901;47.600;9.890;2023-08-24T02:57:45;8.87;;;5.67;;
60030;SDS011;45901;47.600;9.890;2023-08-24T03:00:12;9.97;;;6.43;;
60030;SDS011;45901;47.600;9.890;2023-08-24T03:02:40;12.87;;;6.57;;
60030;SDS011;45901;47.600;9.890;2023-08-24T03:05:08;12.23;;;6.10;;
60030;SDS011;45901;47.600;9.890;2023-08-24T03:07:35;8.10;;;5.70;;
60030;SDS011;45901;47.600;9.890;2023-08-24T03:10:04;13.43;;;5.87;;
60030;SDS011;45901;47.600;9.890;2023-08-24T03:12:32;10.43;;;5.73;;
60030;SDS011;45901;47.600;9.890;2023-08-24T03:14:59;12.63;;;6.27;;
60030;SDS011;45901;47.600;9.890;2023-08-24T03:17:26;10.90;;;6.13;;
60030;SDS011;45901;47.600;9.890;2023-08-24T03:19:53;11.80;;;6.30;;
60030;SDS011;45901;47.600;9.890;2023-08-24T03:22:20;8.73;;;5.67;;
60030;SDS011;45901;47.600;9.890;2023-08-24T03:24:47;12.80;;;6.27;;
60030;SDS011;45901;47.600;9.890;2023-08-24T03:27:15;8.13;;;5.30;;
60030;SDS011;45901;47.600;9.890;2023-08-24T03:29:42;11.43;;;6.07;;
60030;SDS011;45901;47.600;9.890;2023-08-24T03:32:09;11.40;;;5.23;;
60030;SDS011;45901;47.600;9.890;2023-08-24T03:34:36;12.13;;;5.50;;
60030;SDS011;45901;47.600;9.890;2023-08-24T03:37:03;11.00;;;6.27;;
60030;SDS011;45901;47.600;9.890;2023-08-24T03:39:30;8.57;;;5.20;;
60030;SDS011;45901;47.600;9.890;2023-08-24T03:41:57;10.73;;;5.50;;
60030;SDS011;45901;47.600;9.890;2023-08-24T03:44:26;13.50;;;5.80;;
60030;SDS011;45901;47.600;9.890;2023-08-24T03:46:53;13.67;;;5.70;;
60030;SDS011;45901;47.600;9.890;2023-08-24T03:49:20;13.83;;;5.73;;
60030;SDS011;45901;47.600;9.890;2023-08-24T03:51:47;7.73;;;5.33;;
60030;SDS011;45901;47.600;9.890;2023-08-24T03:54:14;10.67;;;5.53;;
60030;SDS011;45901;47.600;9.890;2023-08-24T03:56:41;8.10;;;5.67;;
60030;SDS011;45901;47.600;9.890;2023-08-24T03:59:08;8.37;;;6.13;;
60030;SDS011;45901;47.600;9.890;2023-08-24T04:01:36;10.90;;;5.97;;
60030;SDS011;45901;47.600;9.890;2023-08-24T04:04:04;10.60;;;5.93;;
60030;SDS011;45901;47.600;9.890;2023-08-24T04:06:31;13.87;;;5.93;;
60030;SDS011;45901;47.600;9.890;2023-08-24T04:08:57;11.53;;;5.80;;
60030;SDS011;45901;47.600;9.890;2023-08-24T04:11:24;8.67;;;5.70;;
60030;SDS011;45901;47.600;9.890;2023-08-24T04:13:51;11.97;;;5.80;;
60030;SDS011;45901;47.600;9.890;2023-08-24T04:16:18;9.37;;;5.90;;
60030;SDS011;45901;47.600;9.890;2023-08-24T04:18:47;15.27;;;5.63;;
60030;SDS011;45901;47.600;9.890;2023-08-24T04:21:14;9.73;;;5.27;;
60030;SDS011;45901;47.600;9.890;2023-08-24T04:23:41;9.47;;;5.67;;
60030;SDS011;45901;47.600;9.890;2023-08-24T04:26:10;10.37;;;5.63;;
60030;SDS011;45901;47.600;9.890;2023-08-24T04:28:37;10.30;;;6.53;;
60030;SDS011;45901;47.600;9.890;2023-08-24T04:31:04;7.93;;;5.70;;
60030;SDS011;45901;47.600;9.890;2023-08-24T04:33:31;10.80;;;5.50;;
60030;SDS011;45901;47.600;9.890;2023-08-24T04:35:59;7.40;;;5.63;;
60030;SDS011;45901;47.600;9.890;2023-08-24T04:38:29;9.30;;;5.93;;
60030;SDS011;45901;47.600;9.890;2023-08-24T04:40:56;10.73;;;6.20;;
60030;SDS011;45901;47.600;9.890;2023-08-24T04:43:23;10.20;;;6.10;;
60030;SDS011;45901;47.600;9.890;2023-08-24T04:45:51;12.67;;;5.83;;
60030;SDS011;45901;47.600;9.890;2023-08-24T04:48:19;11.30;;;5.73;;
60030;SDS011;45901;47.600;9.890;2023-08-24T04:50:47;13.83;;;6.23;;
60030;SDS011;45901;47.600;9.890;2023-08-24T04:53:17;14.80;;;6.83;;
60030;SDS011;45901;47.600;9.890;2023-08-24T04:55:45;11.63;;;5.10;;
60030;SDS011;45901;47.600;9.890;2023-08-24T04:58:12;14.60;;;6.30;;
60030;SDS011;45901;47.600;9.890;2023-08-24T05:00:40;12.93;;;5.80;;
60030;SDS011;45901;47.600;9.890;2023-08-24T05:03:07;11.30;;;5.93;;
60030;SDS011;45901;47.600;9.890;2023-08-24T05:05:35;15.40;;;6.53;;
60030;SDS011;45901;47.600;9.890;2023-08-24T05:08:03;12.73;;;5.87;;
60030;SDS011;45901;47.600;9.890;2023-08-24T05:10:36;13.27;;;5.83;;
60030;SDS011;45901;47.600;9.890;2023-08-24T05:13:04;15.17;;;6.43;;
60030;SDS011;45901;47.600;9.890;2023-08-24T05:15:31;12.13;;;5.73;;
60030;SDS011;45901;47.600;9.890;2023-08-24T05:17:58;10.03;;;5.80;;
60030;SDS011;45901;47.600;9.890;2023-08-24T05:20:25;9.70;;;6.47;;
60030;SDS011;45901;47.600;9.890;2023-08-24T05:22:52;13.77;;;5.93;;
60030;SDS011;45901;47.600;9.890;2023-08-24T05:25:20;15.80;;;6.40;;
60030;SDS011;45901;47.600;9.890;2023-08-24T05:27:49;12.17;;;6.30;;
60030;SDS011;45901;47.600;9.890;2023-08-24T05:30:17;8.90;;;5.97;;
60030;SDS011;45901;47.600;9.890;2023-08-24T05:32:44;16.67;;;7.07;;
60030;SDS011;45901;47.600;9.890;2023-08-24T05:35:11;11.43;;;6.40;;
60030;SDS011;45901;47.600;9.890;2023-08-24T05:37:38;13.53;;;6.43;;
60030;SDS011;45901;47.600;9.890;2023-08-24T05:40:05;17.03;;;6.13;;
60030;SDS011;45901;47.600;9.890;2023-08-24T05:42:33;18.03;;;6.30;;
60030;SDS011;45901;47.600;9.890;2023-08-24T05:45:03;15.40;;;6.50;;
60030;SDS011;45901;47.600;9.890;2023-08-24T05:47:31;20.03;;;6.60;;
60030;SDS011;45901;47.600;9.890;2023-08-24T05:49:58;22.27;;;6.27;;
60030;SDS011;45901;47.600;9.890;2023-08-24T05:52:25;12.33;;;5.67;;
60030;SDS011;45901;47.600;9.890;2023-08-24T05:54:52;13.43;;;8.43;;
60030;SDS011;45901;47.600;9.890;2023-08-24T05:57:19;14.73;;;7.90;;
60030;SDS011;45901;47.600;9.890;2023-08-24T05:59:47;14.30;;;7.13;;
60030;SDS011;45901;47.600;9.890;2023-08-24T06:02:15;19.77;;;7.70;;
60030;SDS011;45901;47.600;9.890;2023-08-24T06:04:42;14.73;;;7.13;;
60030;SDS011;45901;47.600;9.890;2023-08-24T06:07:09;11.27;;;6.67;;
60030;SDS011;45901;47.600;9.890;2023-08-24T06:09:37;14.07;;;6.37;;
60030;SDS011;45901;47.600;9.890;2023-08-24T06:12:04;13.10;;;7.13;;
60030;SDS011;45901;47.600;9.890;2023-08-24T06:14:33;10.47;;;6.90;;
60030;SDS011;45901;47.600;9.890;2023-08-24T06:16:59;14.77;;;7.00;;
60030;SDS011;45901;47.600;9.890;2023-08-24T06:19:28;15.90;;;6.13;;
60030;SDS011;45901;47.600;9.890;2023-08-24T06:21:55;12.80;;;6.30;;
60030;SDS011;45901;47.600;9.890;2023-08-24T06:24:22;11.37;;;5.90;;
60030;SDS011;45901;47.600;9.890;2023-08-24T06:26:49;13.37;;;5.60;;
60030;SDS011;45901;47.600;9.890;2023-08-24T06:29:16;13.70;;;5.90;;
60030;SDS011;45901;47.600;9.890;2023-08-24T06:31:43;10.40;;;5.83;;
60030;SDS011;45901;47.600;9.890;2023-08-24T06:34:10;14.73;;;5.37;;
60030;SDS011;45901;47.600;9.890;2023-08-24T06:36:38;9.83;;;5.10;;
60030;SDS011;45901;47.600;9.890;2023-08-24T06:39:05;11.10;;;4.73;;
60030;SDS011;45901;47.600;9.890;2023-08-24T06:41:33;13.57;;;4.90;;
60030;SDS011;45901;47.600;9.890;2023-08-24T06:44:01;13.70;;;4.73;;
60030;SDS011;45901;47.600;9.890;2023-08-24T06:46:29;10.97;;;5.03;;
60030;SDS011;45901;47.600;9.890;2023-08-24T06:48:56;11.13;;;4.10;;
60030;SDS011;45901;47.600;9.890;2023-08-24T06:51:23;11.40;;;4.80;;
60030;SDS011;45901;47.600;9.890;2023-08-24T06:53:52;11.57;;;5.03;;
60030;SDS011;45901;47.600;9.890;2023-08-24T06:56:19;12.30;;;5.73;;
60030;SDS011;45901;47.600;9.890;2023-08-24T06:58:47;9.97;;;4.97;;
60030;SDS011;45901;47.600;9.890;2023-08-24T07:01:17;9.93;;;5.30;;
60030;SDS011;45901;47.600;9.890;2023-08-24T07:03:52;10.40;;;5.07;;
60030;SDS011;45901;47.600;9.890;2023-08-24T07:06:21;14.10;;;4.60;;
60030;SDS011;45901;47.600;9.890;2023-08-24T07:08:59;9.27;;;4.60;;
60030;SDS011;45901;47.600;9.890;2023-08-24T07:11:34;10.93;;;4.90;;
60030;SDS011;45901;47.600;9.890;2023-08-24T07:14:01;13.23;;;5.13;;
60030;SDS011;45901;47.600;9.890;2023-08-24T07:16:27;13.77;;;4.67;;
60030;SDS011;45901;47.600;9.890;2023-08-24T07:18:54;9.53;;;4.83;;
60030;SDS011;45901;47.600;9.890;2023-08-24T07:21:21;9.67;;;5.17;;
60030;SDS011;45901;47.600;9.890;2023-08-24T07:23:48;9.87;;;4.87;;
60030;SDS011;45901;47.600;9.890;2023-08-24T07:26:17;10.53;;;4.90;;
60030;SDS011;45901;47.600;9.890;2023-08-24T07:28:44;7.33;;;4.30;;
60030;SDS011;45901;47.600;9.890;2023-08-24T07:31:11;13.87;;;4.73;;
60030;SDS011;45901;47.600;9.890;2023-08-24T07:33:38;11.13;;;5.40;;
60030;SDS011;45901;47.600;9.890;2023-08-24T07:36:05;17.23;;;5.43;;
60030;SDS011;45901;47.600;9.890;2023-08-24T07:38:32;27.37;;;5.43;;
60030;SDS011;45901;47.600;9.890;2023-08-24T07:40:59;11.60;;;5.03;;
60030;SDS011;45901;47.600;9.890;2023-08-24T07:43:28;9.23;;;4.93;;
60030;SDS011;45901;47.600;9.890;2023-08-24T07:45:55;14.37;;;5.27;;
60030;SDS011;45901;47.600;9.890;2023-08-24T07:48:22;9.10;;;4.83;;
60030;SDS011;45901;47.600;9.890;2023-08-24T07:50:49;11.85;;;5.50;;
60030;SDS011;45901;47.600;9.890;2023-08-24T07:53:16;12.73;;;4.70;;
60030;SDS011;45901;47.600;9.890;2023-08-24T07:55:43;15.93;;;5.50;;
60030;SDS011;45901;47.600;9.890;2023-08-24T07:58:10;9.80;;;5.18;;
60030;SDS011;45901;47.600;9.890;2023-08-24T08:00:39;10.82;;;5.22;;
60030;SDS011;45901;47.600;9.890;2023-08-24T08:03:06;12.52;;;4.97;;
60030;SDS011;45901;47.600;9.890;2023-08-24T08:05:33;11.55;;;4.57;;
60030;SDS011;45901;47.600;9.890;2023-08-24T08:08:00;12.55;;;5.18;;
60030;SDS011;45901;47.600;9.890;2023-08-24T08:10:26;17.80;;;5.25;;
60030;SDS011;45901;47.600;9.890;2023-08-24T08:12:53;13.98;;;4.75;;
60030;SDS011;45901;47.600;9.890;2023-08-24T08:15:20;15.65;;;4.90;;
60030;SDS011;45901;47.600;9.890;2023-08-24T08:17:49;15.18;;;4.50;;
60030;SDS011;45901;47.600;9.890;2023-08-24T08:20:17;10.43;;;4.60;;
60030;SDS011;45901;47.600;9.890;2023-08-24T08:22:44;17.92;;;4.93;;
60030;SDS011;45901;47.600;9.890;2023-08-24T08:25:11;8.10;;;4.47;;
60030;SDS011;45901;47.600;9.890;2023-08-24T08:27:38;14.35;;;4.45;;
60030;SDS011;45901;47.600;9.890;2023-08-24T08:30:06;14.48;;;4.43;;
60030;SDS011;45901;47.600;9.890;2023-08-24T08:32:33;18.90;;;5.15;;
60030;SDS011;45901;47.600;9.890;2023-08-24T08:35:02;9.73;;;4.07;;
60030;SDS011;45901;47.600;9.890;2023-08-24T08:37:31;17.08;;;5.07;;
60030;SDS011;45901;47.600;9.890;2023-08-24T08:39:58;17.00;;;5.00;;
60030;SDS011;45901;47.600;9.890;2023-08-24T08:42:25;10.77;;;4.60;;
60030;SDS011;45901;47.600;9.890;2023-08-24T08:44:52;11.50;;;3.60;;
60030;SDS011;45901;47.600;9.890;2023-08-24T08:47:21;9.52;;;4.20;;
60030;SDS011;45901;47.600;9.890;2023-08-24T08:49:48;15.63;;;4.20;;
60030;SDS011;45901;47.600;9.890;2023-08-24T08:52:18;11.40;;;4.10;;
60030;SDS011;45901;47.600;9.890;2023-08-24T08:54:45;14.32;;;4.15;;
60030;SDS011;45901;47.600;9.890;2023-08-24T08:57:12;15.75;;;3.92;;
60030;SDS011;45901;47.600;9.890;2023-08-24T08:59:41;16.20;;;3.90;;
60030;SDS011;45901;47.600;9.890;2023-08-24T09:02:08;12.88;;;4.75;;
60030;SDS011;45901;47.600;9.890;2023-08-24T09:04:42;11.85;;;4.57;;
60030;SDS011;45901;47.600;9.890;2023-08-24T09:07:11;10.05;;;4.45;;
60030;SDS011;45901;47.600;9.890;2023-08-24T09:09:41;14.40;;;4.57;;
60030;SDS011;45901;47.600;9.890;2023-08-24T09:12:08;13.20;;;4.97;;
60030;SDS011;45901;47.600;9.890;2023-08-24T09:14:35;16.60;;;5.05;;
60030;SDS011;45901;47.600;9.890;2023-08-24T09:17:02;11.02;;;4.53;;
60030;SDS011;45901;47.600;9.890;2023-08-24T09:19:30;14.00;;;4.22;;
60030;SDS011;45901;47.600;9.890;2023-08-24T09:22:00;14.52;;;5.30;;
60030;SDS011;45901;47.600;9.890;2023-08-24T09:24:29;16.92;;;4.38;;
60030;SDS011;45901;47.600;9.890;2023-08-24T09:26:58;17.92;;;5.25;;
60030;SDS011;45901;47.600;9.890;2023-08-24T09:29:26;9.80;;;4.43;;
60030;SDS011;45901;47.600;9.890;2023-08-24T09:31:53;12.68;;;4.60;;
60030;SDS011;45901;47.600;9.890;2023-08-24T09:34:20;14.73;;;4.72;;
60030;SDS011;45901;47.600;9.890;2023-08-24T09:36:52;8.98;;;4.80;;
60030;SDS011;45901;47.600;9.890;2023-08-24T09:39:19;11.70;;;4.68;;
60030;SDS011;45901;47.600;9.890;2023-08-24T09:41:48;18.67;;;5.45;;
60030;SDS011;45901;47.600;9.890;2023-08-24T09:44:18;11.40;;;4.63;;
60030;SDS011;45901;47.600;9.890;2023-08-24T09:46:45;18.73;;;5.72;;
60030;SDS011;45901;47.600;9.890;2023-08-24T09:49:12;14.35;;;5.20;;
60030;SDS011;45901;47.600;9.890;2023-08-24T09:51:40;13.50;;;5.35;;
60030;SDS011;45901;47.600;9.890;2023-08-24T09:54:09;11.98;;;4.72;;
60030;SDS011;45901;47.600;9.890;2023-08-24T09:56:40;14.65;;;5.10;;
60030;SDS011;45901;47.600;9.890;2023-08-24T09:59:10;10.80;;;4.90;;
60030;SDS011;45901;47.600;9.890;2023-08-24T10:01:44;17.85;;;5.28;;
60030;SDS011;45901;47.600;9.890;2023-08-24T10:04:12;14.65;;;4.80;;
60030;SDS011;45901;47.600;9.890;2023-08-24T10:06:40;11.23;;;4.82;;
60030;SDS011;45901;47.600;9.890;2023-08-24T10:09:11;10.57;;;4.72;;
60030;SDS011;45901;47.600;9.890;2023-08-24T10:11:48;19.02;;;5.45;;
60030;SDS011;45901;47.600;9.890;2023-08-24T10:14:23;15.32;;;5.10;;
60030;SDS011;45901;47.600;9.890;2023-08-24T10:16:58;15.70;;;5.25;;
60030;SDS011;45901;47.600;9.890;2023-08-24T10:19:25;12.98;;;5.43;;
60030;SDS011;45901;47.600;9.890;2023-08-24T10:21:53;12.75;;;4.88;;
60030;SDS011;45901;47.600;9.890;2023-08-24T10:24:23;15.13;;;4.97;;
60030;SDS011;45901;47.600;9.890;2023-08-24T10:26:50;13.80;;;4.90;;
60030;SDS011;45901;47.600;9.890;2023-08-24T10:29:18;15.52;;;4.50;;
60030;SDS011;45901;47.600;9.890;2023-08-24T10:31:46;15.75;;;4.60;;
60030;SDS011;45901;47.600;9.890;2023-08-24T10:34:17;18.08;;;4.85;;
60030;SDS011;45901;47.600;9.890;2023-08-24T10:36:46;10.38;;;3.80;;
60030;SDS011;45901;47.600;9.890;2023-08-24T10:39:14;22.05;;;4.78;;
60030;SDS011;45901;47.600;9.890;2023-08-24T10:41:48;14.23;;;4.78;;
60030;SDS011;45901;47.600;9.890;2023-08-24T10:44:19;15.13;;;4.75;;
60030;SDS011;45901;47.600;9.890;2023-08-24T10:47:07;14.23;;;4.88;;
60030;SDS011;45901;47.600;9.890;2023-08-24T10:49:40;11.90;;;4.40;;
60030;SDS011;45901;47.600;9.890;2023-08-24T10:52:17;18.90;;;5.90;;
60030;SDS011;45901;47.600;9.890;2023-08-24T10:54:48;14.07;;;4.32;;
60030;SDS011;45901;47.600;9.890;2023-08-24T10:57:17;13.32;;;4.97;;
60030;SDS011;45901;47.600;9.890;2023-08-24T10:59:59;17.98;;;4.47;;
60030;SDS011;45901;47.600;9.890;2023-08-24T11:02:40;17.40;;;4.45;;
60030;SDS011;45901;47.600;9.890;2023-08-24T11:05:17;10.77;;;4.35;;
60030;SDS011;45901;47.600;9.890;2023-08-24T11:07:50;18.38;;;4.78;;
60030;SDS011;45901;47.600;9.890;2023-08-24T11:10:19;21.23;;;5.10;;
60030;SDS011;45901;47.600;9.890;2023-08-24T11:13:06;15.30;;;4.85;;
60030;SDS011;45901;47.600;9.890;2023-08-24T11:15:39;15.70;;;4.53;;
60030;SDS011;45901;47.600;9.890;2023-08-24T11:18:11;19.75;;;4.55;;
60030;SDS011;45901;47.600;9.890;2023-08-24T11:20:52;23.23;;;4.57;;
60030;SDS011;45901;47.600;9.890;2023-08-24T11:23:21;23.73;;;4.53;;
60030;SDS011;45901;47.600;9.890;2023-08-24T11:25:51;20.65;;;3.70;;
60030;SDS011;45901;47.600;9.890;2023-08-24T11:28:21;28.77;;;5.18;;
60030;SDS011;45901;47.600;9.890;2023-08-24T11:30:50;25.55;;;4.35;;
60030;SDS011;45901;47.600;9.890;2023-08-24T11:33:26;18.75;;;4.00;;
60030;SDS011;45901;47.600;9.890;2023-08-24T11:35:56;27.10;;;4.60;;
60030;SDS011;45901;47.600;9.890;2023-08-24T11:38:24;22.48;;;4.50;;
60030;SDS011;45901;47.600;9.890;2023-08-24T11:40:51;28.40;;;4.95;;
60030;SDS011;45901;47.600;9.890;2023-08-24T11:43:23;23.70;;;4.80;;
60030;SDS011;45901;47.600;9.890;2023-08-24T11:45:52;25.80;;;4.38;;
60030;SDS011;45901;47.600;9.890;2023-08-24T11:48:23;22.73;;;4.32;;
60030;SDS011;45901;47.600;9.890;2023-08-24T11:50:51;30.45;;;4.72;;
60030;SDS011;45901;47.600;9.890;2023-08-24T11:53:20;32.22;;;5.15;;
60030;SDS011;45901;47.600;9.890;2023-08-24T11:55:49;21.48;;;4.53;;
60030;SDS011;45901;47.600;9.890;2023-08-24T11:58:18;25.70;;;5.05;;
60030;SDS011;45901;47.600;9.890;2023-08-24T12:00:45;23.80;;;4.22;;
60030;SDS011;45901;47.600;9.890;2023-08-24T12:03:13;26.52;;;4.32;;
60030;SDS011;45901;47.600;9.890;2023-08-24T12:05:40;18.52;;;4.63;;
60030;SDS011;45901;47.600;9.890;2023-08-24T12:08:07;22.33;;;4.07;;
60030;SDS011;45901;47.600;9.890;2023-08-24T12:10:42;20.30;;;4.57;;
60030;SDS011;45901;47.600;9.890;2023-08-24T12:13:11;27.75;;;4.55;;
60030;SDS011;45901;47.600;9.890;2023-08-24T12:15:40;19.52;;;4.78;;
60030;SDS011;45901;47.600;9.890;2023-08-24T12:18:08;26.65;;;3.88;;
60030;SDS011;45901;47.600;9.890;2023-08-24T12:20:35;18.38;;;4.13;;
60030;SDS011;45901;47.600;9.890;2023-08-24T12:23:03;18.60;;;3.92;;
60030;SDS011;45901;47.600;9.890;2023-08-24T12:25:30;17.48;;;4.00;;
60030;SDS011;45901;47.600;9.890;2023-08-24T12:28:11;23.38;;;5.10;;
60030;SDS011;45901;47.600;9.890;2023-08-24T12:30:43;23.73;;;4.85;;
60030;SDS011;45901;47.600;9.890;2023-08-24T12:33:23;24.08;;;4.80;;
60030;SDS011;45901;47.600;9.890;2023-08-24T12:35:51;22.27;;;4.25;;
60030;SDS011;45901;47.600;9.890;2023-08-24T12:38:19;18.42;;;4.60;;
60030;SDS011;45901;47.600;9.890;2023-08-24T12:40:47;16.23;;;4.28;;
60030;SDS011;45901;47.600;9.890;2023-08-24T12:43:15;17.38;;;4.03;;
60030;SDS011;45901;47.600;9.890;2023-08-24T12:45:42;13.80;;;4.30;;
60030;SDS011;45901;47.600;9.890;2023-08-24T12:48:10;25.33;;;5.13;;
60030;SDS011;45901;47.600;9.890;2023-08-24T12:50:37;18.52;;;4.55;;
60030;SDS011;45901;47.600;9.890;2023-08-24T12:53:05;25.88;;;4.63;;
60030;SDS011;45901;47.600;9.890;2023-08-24T12:55:33;19.95;;;4.15;;
60030;SDS011;45901;47.600;9.890;2023-08-24T12:58:02;21.98;;;4.72;;
60030;SDS011;45901;47.600;9.890;2023-08-24T13:00:31;19.88;;;4.63;;
60030;SDS011;45901;47.600;9.890;2023-08-24T13:02:58;15.20;;;3.92;;
60030;SDS011;45901;47.600;9.890;2023-08-24T13:05:24;20.95;;;4.03;;
60030;SDS011;45901;47.600;9.890;2023-08-24T13:07:51;14.38;;;3.95;;
60030;SDS011;45901;47.600;9.890;2023-08-24T13:10:18;19.88;;;4.82;;
60030;SDS011;45901;47.600;9.890;2023-08-24T13:12:45;14.57;;;3.85;;
60030;SDS011;45901;47.600;9.890;2023-08-24T13:15:13;26.10;;;4.93;;
60030;SDS011;45901;47.600;9.890;2023-08-24T13:17:41;23.15;;;4.22;;
60030;SDS011;45901;47.600;9.890;2023-08-24T13:20:09;28.10;;;4.82;;
60030;SDS011;45901;47.600;9.890;2023-08-24T13:22:36;19.20;;;4.13;;
60030;SDS011;45901;47.600;9.890;2023-08-24T13:25:04;21.10;;;4.68;;
60030;SDS011;45901;47.600;9.890;2023-08-24T13:27:32;18.73;;;4.40;;
60030;SDS011;45901;47.600;9.890;2023-08-24T13:30:02;20.35;;;4.43;;
60030;SDS011;45901;47.600;9.890;2023-08-24T13:32:30;17.95;;;4.85;;
60030;SDS011;45901;47.600;9.890;2023-08-24T13:34:58;15.95;;;4.57;;
60030;SDS011;45901;47.600;9.890;2023-08-24T13:37:25;22.10;;;4.25;;
60030;SDS011;45901;47.600;9.890;2023-08-24T13:39:52;23.10;;;4.43;;
60030;SDS011;45901;47.600;9.890;2023-08-24T13:42:19;19.90;;;4.28;;
60030;SDS011;45901;47.600;9.890;2023-08-24T13:44:46;18.10;;;4.47;;
60030;SDS011;45901;47.600;9.890;2023-08-24T13:47:13;23.65;;;4.10;;
60030;SDS011;45901;47.600;9.890;2023-08-24T13:49:40;25.52;;;4.90;;
60030;SDS011;45901;47.600;9.890;2023-08-24T13:52:08;20.50;;;4.57;;
60030;SDS011;45901;47.600;9.890;2023-08-24T13:54:35;21.23;;;4.30;;
60030;SDS011;45901;47.600;9.890;2023-08-24T13:57:02;23.60;;;4.65;;
60030;SDS011;45901;47.600;9.890;2023-08-24T13:59:31;20.90;;;4.18;;
60030;SDS011;45901;47.600;9.890;2023-08-24T14:01:58;20.92;;;4.00;;
60030;SDS011;45901;47.600;9.890;2023-08-24T14:04:25;23.25;;;4.75;;
60030;SDS011;45901;47.600;9.890;2023-08-24T14:06:52;15.65;;;4.28;;
60030;SDS011;45901;47.600;9.890;2023-08-24T14:09:21;19.33;;;4.20;;
60030;SDS011;45901;47.600;9.890;2023-08-24T14:11:48;23.95;;;5.28;;
60030;SDS011;45901;47.600;9.890;2023-08-24T14:14:15;25.80;;;4.18;;
60030;SDS011;45901;47.600;9.890;2023-08-24T14:16:42;23.98;;;4.28;;
60030;SDS011;45901;47.600;9.890;2023-08-24T14:19:09;19.98;;;4.20;;
60030;SDS011;45901;47.600;9.890;2023-08-24T14:21:36;29.00;;;4.78;;
60030;SDS011;45901;47.600;9.890;2023-08-24T14:24:03;17.17;;;4.45;;
60030;SDS011;45901;47.600;9.890;2023-08-24T14:26:32;24.45;;;4.80;;
60030;SDS011;45901;47.600;9.890;2023-08-24T14:28:59;19.33;;;4.15;;
60030;SDS011;45901;47.600;9.890;2023-08-24T14:31:26;14.45;;;4.80;;
60030;SDS011;45901;47.600;9.890;2023-08-24T14:33:55;21.45;;;4.82;;
60030;SDS011;45901;47.600;9.890;2023-08-24T14:36:22;19.98;;;4.22;;
60030;SDS011;45901;47.600;9.890;2023-08-24T14:38:50;24.95;;;4.35;;
60030;SDS011;45901;47.600;9.890;2023-08-24T14:41:17;18.33;;;3.90;;
60030;SDS011;45901;47.600;9.890;2023-08-24T14:43:46;20.88;;;4.35;;